»·PEaware :: N12PL KEGE-KTEX

N12PL :: KEGE-KTEX

FLIGHT INFORMATION

Flight Status: Arrived
Operator: Privately registered:
United States
More flights under this callsign
Pilot: Ethan S. (29221)
Aircraft: CANADAIR CL-600 CHALLENGER
(CL60)
More flights by this aircraft type
Origin: KEGE Eagle Co Regl
United States
Destination: KTEX Telluride Regl
United States
More flights between these airports :: More routes between these airports
Route: BEVVR1 SPRKT JNC ETL
File this flight plan on PilotEdge
Remarks:
Altitude:
(Current/Filed)
28,000ft
Speed:
(Current/Filed)
465kts
Departed: 05-Oct-23 08:26 AM
Arrived: 05-Oct-23 09:01 AM
Distance/Time
Traveled:
111nm/0:35
Distance/Time
To Go:
Arrived

Flight Plot

Page will automatically refresh every two minutes.

Flight plan parsing failed; only flown route is shown


Map Options




Map Legend


Flown Route
Filed Route
Departure Airport
Arrival Airport
Navaid (VOR, NDB)
Fix

Horizontal Profiles

Position Reports

Time Latitude Longitude Heading Altitude Ground
Speed
05-Oct-23 07:56 39.641443 -106.908961 261 6550ft 0kts
05-Oct-23 07:57 39.641443 -106.908961 261 6550ft 0kts
05-Oct-23 07:58 39.641443 -106.908961 261 6550ft 0kts
05-Oct-23 07:59 39.641443 -106.908961 261 6550ft 0kts
05-Oct-23 08:00 39.641443 -106.908961 261 6550ft 0kts
05-Oct-23 08:01 39.641443 -106.908961 261 6550ft 0kts
05-Oct-23 08:02 39.641443 -106.908961 261 6550ft 0kts
05-Oct-23 08:03 39.641443 -106.908961 261 6550ft 0kts
05-Oct-23 08:04 39.641443 -106.908961 261 6550ft 0kts
05-Oct-23 08:05 39.641443 -106.908961 261 6550ft 0kts
05-Oct-23 08:06 39.641443 -106.908961 261 6550ft 0kts
05-Oct-23 08:07 39.641443 -106.908961 261 6550ft 0kts
05-Oct-23 08:08 39.641443 -106.908961 261 6550ft 0kts
05-Oct-23 08:09 39.641443 -106.908961 261 6550ft 0kts
05-Oct-23 08:10 39.641443 -106.908961 261 6550ft 0kts
05-Oct-23 08:11 39.641443 -106.908961 261 6550ft 0kts
05-Oct-23 08:12 39.641443 -106.908961 261 6550ft 0kts
05-Oct-23 08:13 39.641443 -106.908961 261 6550ft 0kts
05-Oct-23 08:14 39.641443 -106.908961 261 6550ft 0kts
05-Oct-23 08:15 39.641443 -106.908961 261 6550ft 0kts
05-Oct-23 08:16 39.641443 -106.908961 261 6550ft 0kts
05-Oct-23 08:17 39.641443 -106.908961 261 6550ft 0kts
05-Oct-23 08:18 39.641443 -106.908961 261 6550ft 0kts
05-Oct-23 08:19 39.641443 -106.908961 261 6550ft 0kts
05-Oct-23 08:20 39.641443 -106.908961 261 6550ft 0kts
05-Oct-23 08:21 39.641443 -106.908961 261 6550ft 0kts
05-Oct-23 08:22 39.642230 -106.909263 25 6550ft 9kts
05-Oct-23 08:23 39.642804 -106.905536 81 6550ft 17kts
05-Oct-23 08:24 39.643603 -106.900200 20 6550ft 8kts
05-Oct-23 08:25 39.642387 -106.919551 262 6770ft 174kts
05-Oct-23 08:26 39.596061 -106.974978 216 9963ft 263kts
05-Oct-23 08:27 39.584281 -107.062289 295 13509ft 265kts
05-Oct-23 08:28 39.643991 -107.108963 5 17332ft 278kts
05-Oct-23 08:29 39.721387 -107.093739 343 21315ft 284kts
05-Oct-23 08:30 39.779762 -107.176858 303 23092ft 358kts
05-Oct-23 08:31 39.836582 -107.287629 304 26121ft 381kts
05-Oct-23 08:32 39.896884 -107.404153 304 28782ft 400kts
05-Oct-23 08:33 39.936797 -107.543805 263 28946ft 438kts
05-Oct-23 08:34 39.866770 -107.673747 229 28985ft 451kts
05-Oct-23 08:35 39.780440 -107.792752 229 28966ft 452kts
05-Oct-23 08:36 39.694803 -107.912534 229 28950ft 452kts
05-Oct-23 08:37 39.609495 -108.032028 229 28979ft 452kts
05-Oct-23 08:38 39.523681 -108.151954 229 28962ft 453kts
05-Oct-23 08:39 39.437655 -108.271847 229 28951ft 454kts
05-Oct-23 08:40 39.351637 -108.391205 228 28966ft 453kts
05-Oct-23 08:41 39.265541 -108.510166 228 28939ft 453kts
05-Oct-23 08:42 39.179030 -108.629276 228 28932ft 453kts
05-Oct-23 08:43 39.089366 -108.743948 211 28929ft 455kts
05-Oct-23 08:44 38.967379 -108.743061 158 28285ft 444kts
05-Oct-23 08:45 38.856998 -108.685040 157 26460ft 417kts
05-Oct-23 08:46 38.749812 -108.628533 158 24536ft 409kts
05-Oct-23 08:47 38.645330 -108.573595 158 22591ft 399kts
05-Oct-23 08:48 38.543512 -108.520234 158 20616ft 390kts
05-Oct-23 08:49 38.443723 -108.468127 157 18593ft 380kts
05-Oct-23 08:51 38.346599 -108.417498 157 16499ft 368kts
05-Oct-23 08:52 38.253201 -108.368934 157 14385ft 355kts
05-Oct-23 08:53 38.164602 -108.322991 157 12777ft 318kts
05-Oct-23 08:54 38.084504 -108.281558 157 12763ft 308kts
05-Oct-23 08:55 38.027960 -108.213085 107 12791ft 269kts
05-Oct-23 08:56 38.006381 -108.131714 107 12811ft 219kts
05-Oct-23 08:57 37.989011 -108.065659 106 12116ft 174kts
05-Oct-23 08:58 37.974714 -108.008833 102 11167ft 165kts
05-Oct-23 08:59 37.963215 -107.953435 103 9778ft 157kts
05-Oct-23 09:00 37.952916 -107.904484 106 9051ft 50kts
05-Oct-23 09:01 37.953908 -107.902541 12 9062ft 8kts
05-Oct-23 09:02 37.954128 -107.902143 103 9064ft 0kts
05-Oct-23 09:03 37.954128 -107.902143 103 9064ft 0kts
05-Oct-23 09:04 37.954128 -107.902143 103 9064ft 0kts

Navigation Log

Ident Type
Flight plan parsing failed, navigation log unavailable